createdAt,value
2023-10-14T00:02:30.277Z,15.60
2023-10-14T00:05:43.666Z,13.68
2023-10-14T00:08:57.842Z,14.45
2023-10-14T00:12:12.780Z,10.10
2023-10-14T00:15:25.248Z,14.15
2023-10-14T00:18:38.055Z,13.55
2023-10-14T00:21:50.621Z,14.20
2023-10-14T00:25:03.307Z,14.88
2023-10-14T00:28:19.503Z,12.83
2023-10-14T00:31:32.636Z,16.08
2023-10-14T00:34:44.889Z,12.53
2023-10-14T00:37:59.941Z,21.53
2023-10-14T00:41:13.668Z,14.95
2023-10-14T00:44:29.431Z,13.20
2023-10-14T00:47:42.204Z,14.48
2023-10-14T00:50:57.797Z,14.98
2023-10-14T00:54:12.463Z,18.13
2023-10-14T00:57:25.762Z,17.23
2023-10-14T01:00:42.849Z,16.40
2023-10-14T01:03:57.320Z,12.60
2023-10-14T01:07:13.600Z,11.15
2023-10-14T01:10:30.058Z,12.03
2023-10-14T01:13:45.244Z,16.40
2023-10-14T01:16:58.581Z,14.25
2023-10-14T01:20:18.362Z,15.08
2023-10-14T01:23:31.709Z,10.68
2023-10-14T01:26:47.460Z,11.45
2023-10-14T01:30:00.245Z,14.30
2023-10-14T01:33:14.473Z,18.68
2023-10-14T01:36:29.253Z,15.03
2023-10-14T01:39:43.848Z,18.65
2023-10-14T01:42:58.349Z,18.70
2023-10-14T01:46:11.394Z,16.05
2023-10-14T01:49:26.636Z,15.33
2023-10-14T01:52:39.061Z,18.08
2023-10-14T01:55:54.347Z,16.38
2023-10-14T01:59:09.137Z,20.98
2023-10-14T02:02:22.643Z,23.10
2023-10-14T02:05:36.171Z,22.00
2023-10-14T02:08:49.630Z,22.75
2023-10-14T02:12:03.154Z,22.63
2023-10-14T02:15:17.463Z,18.70
2023-10-14T02:18:30.839Z,24.08
2023-10-14T02:21:49.738Z,22.48
2023-10-14T02:25:05.884Z,19.03
2023-10-14T02:28:19.240Z,23.43
2023-10-14T02:31:37.356Z,19.70
2023-10-14T02:34:52.017Z,24.00
2023-10-14T02:38:06.191Z,18.10
2023-10-14T02:41:19.532Z,21.70
2023-10-14T02:44:33.960Z,18.50
2023-10-14T02:47:46.607Z,18.23
2023-10-14T02:51:01.806Z,20.35
2023-10-14T02:54:22.595Z,19.83
2023-10-14T02:57:35.726Z,24.23
2023-10-14T03:00:48.483Z,17.15
2023-10-14T03:04:02.953Z,16.00
2023-10-14T03:07:17.762Z,25.88
2023-10-14T03:10:35.295Z,20.70
2023-10-14T03:13:47.497Z,19.23
2023-10-14T03:16:59.696Z,15.78
2023-10-14T03:20:16.780Z,16.25
2023-10-14T03:23:29.721Z,17.53
2023-10-14T03:26:41.962Z,19.75
2023-10-14T03:29:59.664Z,18.68
2023-10-14T03:33:13.983Z,16.33
2023-10-14T03:36:28.092Z,17.95
2023-10-14T03:39:48.097Z,15.10
2023-10-14T03:43:02.519Z,19.85
2023-10-14T03:46:19.740Z,17.30
2023-10-14T03:49:34.352Z,23.20
2023-10-14T03:52:48.858Z,19.60
2023-10-14T03:56:02.574Z,22.30
2023-10-14T03:59:17.338Z,18.75
2023-10-14T04:02:29.862Z,24.50
2023-10-14T04:05:43.250Z,22.75
2023-10-14T04:08:55.979Z,17.85
2023-10-14T04:12:09.518Z,18.35
2023-10-14T04:15:31.861Z,25.18
2023-10-14T04:18:45.199Z,21.00
2023-10-14T04:22:00.842Z,19.73
2023-10-14T04:25:26.445Z,17.23
2023-10-14T04:28:41.019Z,19.90
2023-10-14T04:31:57.390Z,18.75
2023-10-14T04:35:15.413Z,21.60
2023-10-14T04:38:30.121Z,16.08
2023-10-14T04:41:44.548Z,16.10
2023-10-14T04:45:00.751Z,20.45
2023-10-14T04:48:14.340Z,19.30
2023-10-14T04:51:28.793Z,17.23
2023-10-14T04:54:44.583Z,16.65
2023-10-14T04:58:17.060Z,15.20
2023-10-14T05:01:36.629Z,14.23
2023-10-14T05:04:48.997Z,26.85
2023-10-14T05:08:03.507Z,17.73
2023-10-14T05:11:17.168Z,19.65
2023-10-14T05:14:32.991Z,20.60
2023-10-14T05:17:45.016Z,22.83
2023-10-14T05:21:05.097Z,27.33
2023-10-14T05:24:24.055Z,27.30
2023-10-14T05:27:43.400Z,19.60
2023-10-14T05:30:59.394Z,20.30
2023-10-14T05:34:12.518Z,24.13
2023-10-14T05:37:27.922Z,26.85
2023-10-14T05:40:40.138Z,31.83
2023-10-14T05:43:52.805Z,21.30
2023-10-14T05:47:05.480Z,24.70
2023-10-14T05:50:21.527Z,23.63
2023-10-14T05:53:36.039Z,27.13
2023-10-14T05:56:48.648Z,27.75
2023-10-14T06:00:02.974Z,37.58
2023-10-14T06:03:18.675Z,27.03
2023-10-14T06:06:32.857Z,24.58
2023-10-14T06:09:47.315Z,21.45
2023-10-14T06:13:00.452Z,20.70
2023-10-14T06:16:19.119Z,18.38
2023-10-14T06:19:32.618Z,23.80
2023-10-14T06:22:45.058Z,14.48
2023-10-14T06:25:57.271Z,13.35
2023-10-14T06:29:11.386Z,16.88
2023-10-14T06:32:24.047Z,14.13
2023-10-14T06:35:36.535Z,11.55
2023-10-14T06:38:49.648Z,13.90
2023-10-14T06:42:02.015Z,16.18
2023-10-14T06:45:19.815Z,12.65
2023-10-14T06:48:32.036Z,14.25
2023-10-14T06:51:44.434Z,14.83
2023-10-14T06:54:56.673Z,11.68
2023-10-14T06:58:10.036Z,14.85
2023-10-14T07:01:23.332Z,16.40
2023-10-14T07:04:38.354Z,15.10
2023-10-14T07:07:51.235Z,14.05
2023-10-14T07:11:06.665Z,11.68
2023-10-14T07:14:19.606Z,20.03
2023-10-14T07:17:31.909Z,31.85
2023-10-14T07:20:44.317Z,17.13
2023-10-14T07:23:56.425Z,20.90
2023-10-14T07:27:08.758Z,19.08
2023-10-14T07:30:23.621Z,13.78
2023-10-14T07:33:38.005Z,18.33
2023-10-14T07:36:52.508Z,20.38
2023-10-14T07:40:08.607Z,21.63
2023-10-14T07:43:21.677Z,15.67
2023-10-14T07:46:34.031Z,30.98
2023-10-14T07:49:46.363Z,17.18
2023-10-14T07:52:59.579Z,20.00
2023-10-14T07:56:12.399Z,24.15
2023-10-14T07:59:25.189Z,15.20
2023-10-14T08:02:37.901Z,15.45
2023-10-14T08:05:54.035Z,17.93
2023-10-14T08:09:06.874Z,20.27
2023-10-14T08:12:20.591Z,16.40
2023-10-14T08:15:32.733Z,12.95
2023-10-14T08:18:46.247Z,13.60
2023-10-14T08:21:58.554Z,10.08
2023-10-14T08:25:12.330Z,10.90
2023-10-14T08:28:26.454Z,11.65
2023-10-14T08:31:38.885Z,11.30
2023-10-14T08:34:50.981Z,9.50
2023-10-14T08:38:04.722Z,11.00
2023-10-14T08:41:19.893Z,6.43
2023-10-14T08:44:37.030Z,11.38
2023-10-14T08:47:52.164Z,9.73
2023-10-14T08:51:06.940Z,12.45
2023-10-14T08:54:20.551Z,14.15
2023-10-14T08:57:32.776Z,8.90
2023-10-14T09:00:45.868Z,13.65
2023-10-14T09:04:00.817Z,10.55
2023-10-14T09:07:20.179Z,10.20
2023-10-14T09:10:33.901Z,10.40
2023-10-14T09:13:47.431Z,8.95
2023-10-14T09:17:00.499Z,7.45
2023-10-14T09:20:15.012Z,15.50
2023-10-14T09:23:34.408Z,11.88
2023-10-14T09:26:51.210Z,11.80
2023-10-14T09:30:05.335Z,9.48
2023-10-14T09:33:20.839Z,9.40
2023-10-14T09:36:33.188Z,10.40
2023-10-14T09:39:50.478Z,12.43
2023-10-14T09:43:04.869Z,15.68
2023-10-14T09:46:19.105Z,9.95
2023-10-14T09:49:33.213Z,11.78
2023-10-14T09:52:48.823Z,11.75
2023-10-14T09:56:07.047Z,12.40
2023-10-14T09:59:20.441Z,8.23
2023-10-14T10:02:34.499Z,9.58
2023-10-14T10:05:51.289Z,11.30
2023-10-14T10:09:27.775Z,9.25
2023-10-14T10:12:42.766Z,10.80
2023-10-14T10:15:57.499Z,9.53
2023-10-14T10:19:10.597Z,13.95
2023-10-14T10:22:24.823Z,15.25
2023-10-14T10:25:57.387Z,9.95
2023-10-14T10:29:27.425Z,12.75
2023-10-14T10:32:42.188Z,15.08
2023-10-14T10:36:09.501Z,10.08
2023-10-14T10:39:24.011Z,13.70
2023-10-14T10:42:37.012Z,13.50
2023-10-14T10:45:53.583Z,12.80
2023-10-14T10:49:07.623Z,12.00
2023-10-14T10:52:20.411Z,10.85
2023-10-14T10:55:33.261Z,12.08
2023-10-14T11:08:33.262Z,13.03
2023-10-14T11:11:46.769Z,14.40
2023-10-14T11:14:59.972Z,12.13
2023-10-14T11:18:27.235Z,17.75
2023-10-14T11:21:30.658Z,14.00
2023-10-14T11:24:44.578Z,11.23
2023-10-14T11:27:57.372Z,15.98
2023-10-14T11:31:10.768Z,15.65
2023-10-14T11:34:23.159Z,11.48
2023-10-14T11:37:45.246Z,17.80
2023-10-14T11:40:55.683Z,12.23
2023-10-14T11:44:10.333Z,8.17
2023-10-14T11:47:22.802Z,16.28
2023-10-14T11:50:35.451Z,13.85
2023-10-14T11:53:52.184Z,13.10
2023-10-14T11:57:04.981Z,9.78
2023-10-14T12:00:22.120Z,15.30
2023-10-14T12:03:35.978Z,16.80
2023-10-14T12:06:48.615Z,11.48
2023-10-14T12:10:01.137Z,11.98
2023-10-14T12:13:14.577Z,13.93
2023-10-14T12:16:27.971Z,15.90
2023-10-14T12:19:42.220Z,12.45
2023-10-14T12:22:54.827Z,9.65
2023-10-14T12:26:08.776Z,10.48
2023-10-14T12:29:22.974Z,12.90
2023-10-14T12:32:36.087Z,14.00
2023-10-14T12:35:50.975Z,15.20
2023-10-14T12:39:05.676Z,15.15
2023-10-14T12:42:22.222Z,14.60
2023-10-14T12:45:36.042Z,13.28
2023-10-14T12:48:51.832Z,13.13
2023-10-14T12:52:06.411Z,11.63
2023-10-14T12:55:22.120Z,17.20
2023-10-14T12:58:36.087Z,12.63
2023-10-14T13:01:53.740Z,21.00
2023-10-14T13:05:06.785Z,18.25
2023-10-14T13:08:20.879Z,13.13
2023-10-14T13:11:35.577Z,14.60
2023-10-14T13:14:47.993Z,15.75
2023-10-14T13:18:02.917Z,15.10
2023-10-14T13:21:16.303Z,15.50
2023-10-14T13:24:28.555Z,20.38
2023-10-14T13:27:41.136Z,17.60
2023-10-14T13:30:55.845Z,18.83
2023-10-14T13:34:09.833Z,15.48
2023-10-14T13:37:22.241Z,18.90
2023-10-14T13:40:41.345Z,17.08
2023-10-14T13:43:51.570Z,17.13
2023-10-14T13:47:06.791Z,16.33
2023-10-14T13:50:23.975Z,14.17
2023-10-14T13:56:47.600Z,19.85
2023-10-14T14:00:00.008Z,17.85
2023-10-14T14:03:16.160Z,15.93
2023-10-14T14:06:29.954Z,20.88
2023-10-14T14:09:42.274Z,12.98
2023-10-14T14:12:54.581Z,18.08
2023-10-14T14:16:07.566Z,18.98
2023-10-14T14:19:20.879Z,16.75
2023-10-14T14:22:33.828Z,19.73
2023-10-14T14:25:46.136Z,16.00
2023-10-14T14:28:59.077Z,17.08
2023-10-14T14:32:12.290Z,19.23
2023-10-14T14:35:24.944Z,16.00
2023-10-14T14:38:38.248Z,15.28
2023-10-14T14:41:52.661Z,17.63
2023-10-14T14:45:06.831Z,18.80
2023-10-14T14:48:18.952Z,19.10
2023-10-14T14:51:31.465Z,16.18
2023-10-14T14:54:43.901Z,16.50
2023-10-14T14:57:57.769Z,17.95
2023-10-14T15:01:12.664Z,13.95
2023-10-14T15:04:25.151Z,16.10
2023-10-14T15:07:37.896Z,21.68
2023-10-14T15:10:51.125Z,15.68
2023-10-14T15:14:05.629Z,21.35
2023-10-14T15:17:18.425Z,15.43
2023-10-14T15:20:30.660Z,13.15
2023-10-14T15:23:44.428Z,16.78
2023-10-14T15:26:58.498Z,13.33
2023-10-14T15:30:13.578Z,16.93
2023-10-14T15:33:25.958Z,18.28
2023-10-14T15:36:40.607Z,14.93
2023-10-14T15:39:53.118Z,14.08
2023-10-14T15:43:07.036Z,14.50
2023-10-14T15:46:20.177Z,11.70
2023-10-14T15:49:33.445Z,20.55
2023-10-14T15:52:46.044Z,18.25
2023-10-14T15:55:58.561Z,12.65
2023-10-14T15:59:11.846Z,11.85
2023-10-14T16:02:24.102Z,10.03
2023-10-14T16:05:39.230Z,10.75
2023-10-14T16:08:53.930Z,13.55
2023-10-14T16:12:08.277Z,12.28
2023-10-14T16:15:21.302Z,13.83
2023-10-14T16:18:35.688Z,12.85
2023-10-14T16:21:48.245Z,13.70
2023-10-14T16:25:02.434Z,14.08
2023-10-14T16:28:15.525Z,12.80
2023-10-14T16:31:27.894Z,11.08
2023-10-14T16:34:41.003Z,14.03
2023-10-14T16:37:57.542Z,11.65
2023-10-14T16:41:09.927Z,15.35
2023-10-14T16:44:23.164Z,14.00
2023-10-14T16:47:36.138Z,13.80
2023-10-14T16:50:48.942Z,12.60
2023-10-14T16:54:02.356Z,15.03
2023-10-14T16:57:14.957Z,15.20
2023-10-14T17:00:32.171Z,14.90
2023-10-14T17:03:45.295Z,15.90
2023-10-14T17:06:57.948Z,17.13
2023-10-14T17:10:14.731Z,12.30
2023-10-14T17:13:28.179Z,12.80
2023-10-14T17:16:41.612Z,21.85
2023-10-14T17:19:54.733Z,14.15
2023-10-14T17:23:14.136Z,15.58
2023-10-14T17:26:26.537Z,10.98
2023-10-14T17:29:40.273Z,19.13
2023-10-14T17:32:53.063Z,14.65
2023-10-14T17:36:05.720Z,13.03
2023-10-14T17:39:20.473Z,9.05
2023-10-14T17:42:34.312Z,11.78
2023-10-14T17:45:47.591Z,23.18
2023-10-14T17:49:05.542Z,14.75
2023-10-14T17:52:20.372Z,10.28
2023-10-14T17:55:34.710Z,5.78
2023-10-14T17:58:47.689Z,11.15
2023-10-14T18:02:00.197Z,6.88
2023-10-14T18:05:13.822Z,9.70
2023-10-14T18:08:27.045Z,53.50
2023-10-14T18:11:40.600Z,22.50
2023-10-14T18:14:52.987Z,6.35
2023-10-14T18:18:07.055Z,7.28
2023-10-14T18:21:20.728Z,6.85
2023-10-14T18:24:34.520Z,7.93
2023-10-14T18:27:48.417Z,4.40
2023-10-14T18:31:01.611Z,6.70
2023-10-14T18:34:14.640Z,5.28
2023-10-14T18:37:33.556Z,3.03
2023-10-14T18:40:48.962Z,3.10
2023-10-14T18:44:02.978Z,3.85
2023-10-14T18:47:16.648Z,1.65
2023-10-14T18:50:33.276Z,3.30
2023-10-14T18:53:46.829Z,10.90
2023-10-14T18:56:59.503Z,5.78
2023-10-14T19:00:20.318Z,5.75
2023-10-14T19:03:34.873Z,6.25
2023-10-14T19:06:49.260Z,7.18
2023-10-14T19:10:01.783Z,5.38
2023-10-14T19:13:17.906Z,6.55
2023-10-14T19:16:31.106Z,7.55
2023-10-14T19:19:43.734Z,4.05
2023-10-14T19:23:22.466Z,5.50
2023-10-14T19:26:35.162Z,5.23
2023-10-14T19:29:49.098Z,3.38
2023-10-14T19:33:02.090Z,5.90
2023-10-14T19:36:14.940Z,6.75
2023-10-14T19:39:27.663Z,7.33
2023-10-14T19:42:40.358Z,5.30
2023-10-14T19:45:55.955Z,9.60
2023-10-14T19:49:08.788Z,6.98
2023-10-14T19:52:21.320Z,5.15
2023-10-14T19:55:34.400Z,5.98
2023-10-14T19:58:48.280Z,7.30
2023-10-14T20:02:01.271Z,7.68
2023-10-14T20:05:15.421Z,9.18
2023-10-14T20:08:29.657Z,8.88
2023-10-14T20:11:43.370Z,9.00
2023-10-14T20:14:59.465Z,14.00
2023-10-14T20:18:14.124Z,24.40
2023-10-14T20:21:26.530Z,45.65
2023-10-14T20:24:38.781Z,10.40
2023-10-14T20:27:52.630Z,7.63
2023-10-14T20:31:08.804Z,6.78
2023-10-14T20:34:21.648Z,11.13
2023-10-14T20:37:34.400Z,10.10
2023-10-14T20:40:49.965Z,7.65
2023-10-14T20:44:04.310Z,9.03
2023-10-14T20:47:18.545Z,11.68
2023-10-14T20:50:31.861Z,7.98
2023-10-14T20:53:44.348Z,9.68
2023-10-14T20:56:56.594Z,10.28
2023-10-14T21:00:12.901Z,9.58
2023-10-14T21:03:26.873Z,10.13
2023-10-14T21:06:39.960Z,9.48
2023-10-14T21:09:54.109Z,9.15
2023-10-14T21:13:09.135Z,10.30
2023-10-14T21:16:21.813Z,8.65
2023-10-14T21:19:34.608Z,9.13
2023-10-14T21:22:49.322Z,9.30
2023-10-14T21:26:05.779Z,10.23
2023-10-14T21:29:19.870Z,14.20
2023-10-14T21:32:34.341Z,7.60
2023-10-14T21:35:48.234Z,6.48
2023-10-14T21:39:00.702Z,7.18
2023-10-14T21:42:13.565Z,6.73
2023-10-14T21:45:27.949Z,6.30
2023-10-14T21:48:41.199Z,9.90
2023-10-14T21:51:54.283Z,7.93
2023-10-14T21:55:06.422Z,6.85
2023-10-14T21:58:19.387Z,11.48
2023-10-14T22:01:33.952Z,9.00
2023-10-14T22:04:46.176Z,6.23
2023-10-14T22:07:59.628Z,9.48
2023-10-14T22:11:14.779Z,8.13
2023-10-14T22:14:27.999Z,7.58
2023-10-14T22:17:40.420Z,11.78
2023-10-14T22:20:53.039Z,12.68
2023-10-14T22:24:07.817Z,12.98
2023-10-14T22:27:20.245Z,10.40
2023-10-14T22:30:32.875Z,10.65
2023-10-14T22:33:45.599Z,10.00
2023-10-14T22:36:58.066Z,10.40
2023-10-14T22:40:14.980Z,6.45
2023-10-14T22:46:43.733Z,5.13
2023-10-14T22:49:56.480Z,7.28
2023-10-14T22:53:11.242Z,8.15
2023-10-14T22:56:23.826Z,7.70
2023-10-14T22:59:36.150Z,11.15
2023-10-14T23:02:50.042Z,8.73
2023-10-14T23:06:02.572Z,8.30
2023-10-14T23:09:15.629Z,5.98
2023-10-14T23:12:29.230Z,6.90
2023-10-14T23:15:42.967Z,10.60
2023-10-14T23:18:55.224Z,6.08
2023-10-14T23:22:08.202Z,7.65
2023-10-14T23:25:23.706Z,8.55
2023-10-14T23:28:36.470Z,6.33
2023-10-14T23:31:49.723Z,5.25
2023-10-14T23:35:02.682Z,6.43
2023-10-14T23:38:15.704Z,9.20
2023-10-14T23:41:28.204Z,8.85
2023-10-14T23:44:40.402Z,7.10
2023-10-14T23:47:53.846Z,7.53
2023-10-14T23:51:08.641Z,12.83
2023-10-14T23:54:21.027Z,12.78
2023-10-14T23:57:33.124Z,8.68
